Beecher, Illinois
Current Conditions -  °F | °C
As of 1:15 AM on Sunday 23 Nov 2014 (Local Time) from KIGQ Reporting Station
Overcast Overcast  
Wind Chill: 44°   Ceiling: 1500
Heat Index: 49°   Visibility: 10mi
Dew Point: 46°   Wind: 13mph
Humidity: 87%   Direction: 200°SSW
Pressure: 29.86"   Gusts: NA
Location:  41.34°N, 87.62°W
Report Text: KIGQ 230715Z AUTO 20011KT 10SM OVC015 10/08 A2986 RMK AO2 T00950075
Loading
Personal Weather Stations






























Interactive Weather Map New forecast layout! Learn more

10-Day Weather Forecast

Advertisements
Track Severe Weather on mobile